Worcester, New York
Current Conditions -  °F | °C
As of 9:15 AM on Thursday 29 Jan 2015 (Local Time) from KNY0 Reporting Station
Clear Clear  
Wind Chill:   Ceiling: Unl
Heat Index:   Visibility: 10mi
Dew Point: -6°   Wind: 3mph
Humidity: 64%   Direction: 70°ENE
Pressure: 30.24"   Gusts: NA
Location:  42.59°N, 74.75°W
Report Text: KNY0 291415Z AUTO 07003KT 10SM CLR M16/M21 A3024 RMK AO2 T11561210
Loading
Personal Weather Stations






























Interactive Weather Map New forecast layout! Learn more

10-Day Weather Forecast

Advertisements
Track Severe Weather on mobile